sensor_id;sensor_type;location;lat;lon;timestamp;pressure;altitude;pressure_sealevel;temperature;humidity
32735;BME280;19112;51.076;3.706;2023-09-18T00:00:26;100360.19;;;24.12;78.84
32735;BME280;19112;51.076;3.706;2023-09-18T00:02:52;100394.53;;;24.30;78.70
32735;BME280;19112;51.076;3.706;2023-09-18T00:05:18;100272.34;;;23.61;78.59
32735;BME280;19112;51.076;3.706;2023-09-18T00:07:44;100402.44;;;24.35;78.82
32735;BME280;19112;51.076;3.706;2023-09-18T00:10:11;100393.47;;;24.34;78.65
32735;BME280;19112;51.076;3.706;2023-09-18T00:12:38;100267.75;;;23.66;78.64
32735;BME280;19112;51.076;3.706;2023-09-18T00:15:05;100300.75;;;23.97;78.36
32735;BME280;19112;51.076;3.706;2023-09-18T00:17:32;100368.66;;;24.27;78.51
32735;BME280;19112;51.076;3.706;2023-09-18T00:19:57;100275.81;;;23.94;78.46
32735;BME280;19112;51.076;3.706;2023-09-18T00:22:23;100251.28;;;23.78;78.35
32735;BME280;19112;51.076;3.706;2023-09-18T00:24:50;100236.25;;;23.72;78.40
32735;BME280;19112;51.076;3.706;2023-09-18T00:27:16;100343.69;;;24.25;78.63
32735;BME280;19112;51.076;3.706;2023-09-18T00:29:42;100335.56;;;24.27;78.52
32735;BME280;19112;51.076;3.706;2023-09-18T00:32:08;100263.00;;;23.74;78.35
32735;BME280;19112;51.076;3.706;2023-09-18T00:34:34;100249.88;;;23.65;78.16
32735;BME280;19112;51.076;3.706;2023-09-18T00:37:00;100214.50;;;23.52;77.65
32735;BME280;19112;51.076;3.706;2023-09-18T00:39:26;100341.06;;;24.22;77.94
32735;BME280;19112;51.076;3.706;2023-09-18T00:41:52;100270.03;;;23.78;77.79
32735;BME280;19112;51.076;3.706;2023-09-18T00:44:25;100291.66;;;24.01;77.87
32735;BME280;19112;51.076;3.706;2023-09-18T00:46:54;100318.94;;;23.86;77.88
32735;BME280;19112;51.076;3.706;2023-09-18T00:49:24;100231.34;;;23.57;77.94
32735;BME280;19112;51.076;3.706;2023-09-18T00:51:51;100213.91;;;23.42;78.07
32735;BME280;19112;51.076;3.706;2023-09-18T00:54:18;100237.22;;;23.70;77.97
32735;BME280;19112;51.076;3.706;2023-09-18T00:56:46;100255.78;;;23.77;77.94
32735;BME280;19112;51.076;3.706;2023-09-18T00:59:13;100282.00;;;23.96;78.00
32735;BME280;19112;51.076;3.706;2023-09-18T01:01:41;100223.13;;;23.63;78.01
32735;BME280;19112;51.076;3.706;2023-09-18T01:04:07;100232.94;;;23.64;78.03
32735;BME280;19112;51.076;3.706;2023-09-18T01:06:33;100347.19;;;24.27;78.10
32735;BME280;19112;51.076;3.706;2023-09-18T01:08:59;100268.84;;;23.88;78.06
32735;BME280;19112;51.076;3.706;2023-09-18T01:11:35;100203.13;;;23.45;78.13
32735;BME280;19112;51.076;3.706;2023-09-18T01:14:25;100344.09;;;24.41;78.08
32735;BME280;19112;51.076;3.706;2023-09-18T01:16:57;100312.97;;;24.06;78.18
32735;BME280;19112;51.076;3.706;2023-09-18T01:22:09;100239.09;;;23.68;78.43
32735;BME280;19112;51.076;3.706;2023-09-18T01:24:36;100293.59;;;23.96;78.51
32735;BME280;19112;51.076;3.706;2023-09-18T01:27:04;100213.56;;;23.55;78.65
32735;BME280;19112;51.076;3.706;2023-09-18T01:29:31;100190.72;;;23.41;78.55
32735;BME280;19112;51.076;3.706;2023-09-18T01:31:57;100186.03;;;23.49;78.80
32735;BME280;19112;51.076;3.706;2023-09-18T01:34:30;100223.47;;;23.82;79.29
32735;BME280;19112;51.076;3.706;2023-09-18T01:36:58;100271.06;;;24.03;79.59
32735;BME280;19112;51.076;3.706;2023-09-18T01:39:26;100202.53;;;23.65;80.05
32735;BME280;19112;51.076;3.706;2023-09-18T01:42:03;100159.72;;;23.33;80.33
32735;BME280;19112;51.076;3.706;2023-09-18T01:44:31;100154.69;;;23.22;80.63
32735;BME280;19112;51.076;3.706;2023-09-18T01:47:03;100231.69;;;23.76;81.00
32735;BME280;19112;51.076;3.706;2023-09-18T01:49:39;100095.41;;;23.05;80.90
32735;BME280;19112;51.076;3.706;2023-09-18T01:52:07;100140.47;;;23.20;81.02
32735;BME280;19112;51.076;3.706;2023-09-18T01:54:34;100187.84;;;23.47;81.17
32735;BME280;19112;51.076;3.706;2023-09-18T01:57:01;100174.91;;;23.34;80.82
32735;BME280;19112;51.076;3.706;2023-09-18T01:59:28;100223.25;;;23.59;80.72
32735;BME280;19112;51.076;3.706;2023-09-18T02:01:54;100207.16;;;23.59;80.72
32735;BME280;19112;51.076;3.706;2023-09-18T02:04:21;100185.72;;;23.59;80.53
32735;BME280;19112;51.076;3.706;2023-09-18T02:06:49;100188.22;;;23.66;80.42
32735;BME280;19112;51.076;3.706;2023-09-18T02:09:16;100120.72;;;23.24;80.70
32735;BME280;19112;51.076;3.706;2023-09-18T02:11:44;100105.94;;;23.11;80.75
32735;BME280;19112;51.076;3.706;2023-09-18T02:14:11;100160.63;;;23.33;80.72
32735;BME280;19112;51.076;3.706;2023-09-18T02:16:42;100229.59;;;23.86;80.56
32735;BME280;19112;51.076;3.706;2023-09-18T02:19:13;100201.56;;;23.68;80.30
32735;BME280;19112;51.076;3.706;2023-09-18T02:21:46;100096.41;;;23.02;80.34
32735;BME280;19112;51.076;3.706;2023-09-18T02:24:12;100154.16;;;23.40;80.04
32735;BME280;19112;51.076;3.706;2023-09-18T02:26:37;100122.72;;;23.16;80.11
32735;BME280;19112;51.076;3.706;2023-09-18T02:29:08;100209.50;;;23.71;80.15
32735;BME280;19112;51.076;3.706;2023-09-18T02:31:39;100221.34;;;23.62;80.18
32735;BME280;19112;51.076;3.706;2023-09-18T02:34:05;100198.56;;;23.47;80.28
32735;BME280;19112;51.076;3.706;2023-09-18T02:36:33;100298.00;;;23.99;80.36
32735;BME280;19112;51.076;3.706;2023-09-18T02:38:59;100186.38;;;23.37;79.95
32735;BME280;19112;51.076;3.706;2023-09-18T02:41:24;100257.72;;;23.72;80.14
32735;BME280;19112;51.076;3.706;2023-09-18T02:43:50;100299.81;;;23.98;80.15
32735;BME280;19112;51.076;3.706;2023-09-18T02:46:16;100242.78;;;23.64;80.07
32735;BME280;19112;51.076;3.706;2023-09-18T02:48:42;100230.38;;;23.60;79.89
32735;BME280;19112;51.076;3.706;2023-09-18T02:51:08;100161.97;;;23.18;79.98
32735;BME280;19112;51.076;3.706;2023-09-18T02:53:34;100223.28;;;23.57;79.72
32735;BME280;19112;51.076;3.706;2023-09-18T02:56:00;100268.09;;;23.83;79.80
32735;BME280;19112;51.076;3.706;2023-09-18T02:58:26;100221.41;;;23.61;79.82
32735;BME280;19112;51.076;3.706;2023-09-18T03:00:56;100198.38;;;23.53;79.58
32735;BME280;19112;51.076;3.706;2023-09-18T03:03:26;100183.38;;;23.48;79.59
32735;BME280;19112;51.076;3.706;2023-09-18T03:05:52;100179.81;;;23.47;79.15
32735;BME280;19112;51.076;3.706;2023-09-18T03:08:18;100208.78;;;23.66;79.10
32735;BME280;19112;51.076;3.706;2023-09-18T03:10:44;100230.72;;;23.78;78.86
32735;BME280;19112;51.076;3.706;2023-09-18T03:13:14;100124.59;;;23.14;78.74
32735;BME280;19112;51.076;3.706;2023-09-18T03:15:41;100159.72;;;23.33;78.50
32735;BME280;19112;51.076;3.706;2023-09-18T03:18:09;100130.81;;;23.14;78.29
32735;BME280;19112;51.076;3.706;2023-09-18T03:20:35;100163.47;;;23.27;78.14
32735;BME280;19112;51.076;3.706;2023-09-18T03:23:02;100125.78;;;23.04;78.35
32735;BME280;19112;51.076;3.706;2023-09-18T03:25:28;100144.16;;;23.16;78.22
32735;BME280;19112;51.076;3.706;2023-09-18T03:27:56;100126.59;;;23.06;78.63
32735;BME280;19112;51.076;3.706;2023-09-18T03:30:24;100157.09;;;23.31;78.20
32735;BME280;19112;51.076;3.706;2023-09-18T03:32:50;100184.56;;;23.39;78.23
32735;BME280;19112;51.076;3.706;2023-09-18T03:35:17;100093.25;;;22.86;78.09
32735;BME280;19112;51.076;3.706;2023-09-18T03:37:53;100195.16;;;23.42;78.03
32735;BME280;19112;51.076;3.706;2023-09-18T03:40:22;100117.16;;;22.94;77.95
32735;BME280;19112;51.076;3.706;2023-09-18T03:42:49;100205.00;;;23.42;78.19
32735;BME280;19112;51.076;3.706;2023-09-18T03:45:15;100147.22;;;23.04;78.23
32735;BME280;19112;51.076;3.706;2023-09-18T03:47:43;100203.31;;;23.39;77.89
32735;BME280;19112;51.076;3.706;2023-09-18T03:50:10;100157.13;;;23.00;77.86
32735;BME280;19112;51.076;3.706;2023-09-18T03:52:37;100180.44;;;22.96;78.29
32735;BME280;19112;51.076;3.706;2023-09-18T03:55:05;100193.91;;;22.93;78.26
32735;BME280;19112;51.076;3.706;2023-09-18T03:57:31;100205.19;;;23.05;78.25
32735;BME280;19112;51.076;3.706;2023-09-18T03:59:57;100241.50;;;23.15;78.33
32735;BME280;19112;51.076;3.706;2023-09-18T04:02:25;100241.81;;;23.04;78.20
32735;BME280;19112;51.076;3.706;2023-09-18T04:04:53;100096.81;;;22.23;77.86
32735;BME280;19112;51.076;3.706;2023-09-18T04:07:19;100185.56;;;22.71;78.25
32735;BME280;19112;51.076;3.706;2023-09-18T04:09:45;100172.31;;;22.67;78.31
32735;BME280;19112;51.076;3.706;2023-09-18T04:12:12;100206.75;;;22.81;78.48
32735;BME280;19112;51.076;3.706;2023-09-18T04:14:38;100231.94;;;22.72;78.88
32735;BME280;19112;51.076;3.706;2023-09-18T04:17:04;100173.88;;;22.41;78.85
32735;BME280;19112;51.076;3.706;2023-09-18T04:19:30;100262.75;;;22.88;78.76
32735;BME280;19112;51.076;3.706;2023-09-18T04:21:57;100236.50;;;22.68;79.10
32735;BME280;19112;51.076;3.706;2023-09-18T04:24:23;100204.13;;;22.45;79.06
32735;BME280;19112;51.076;3.706;2023-09-18T04:26:49;100236.94;;;22.52;79.23
32735;BME280;19112;51.076;3.706;2023-09-18T04:29:18;100259.69;;;22.68;79.23
32735;BME280;19112;51.076;3.706;2023-09-18T04:31:45;100206.09;;;22.37;79.60
32735;BME280;19112;51.076;3.706;2023-09-18T04:34:11;100189.34;;;22.30;79.42
32735;BME280;19112;51.076;3.706;2023-09-18T04:36:37;100234.69;;;22.69;78.88
32735;BME280;19112;51.076;3.706;2023-09-18T04:39:05;100159.16;;;22.25;78.69
32735;BME280;19112;51.076;3.706;2023-09-18T04:41:32;100265.53;;;22.84;78.39
32735;BME280;19112;51.076;3.706;2023-09-18T04:43:58;100252.19;;;22.82;78.24
32735;BME280;19112;51.076;3.706;2023-09-18T04:46:24;100110.63;;;22.05;78.25
32735;BME280;19112;51.076;3.706;2023-09-18T04:48:51;100107.06;;;22.04;78.03
32735;BME280;19112;51.076;3.706;2023-09-18T04:51:17;100239.75;;;22.80;78.14
32735;BME280;19112;51.076;3.706;2023-09-18T04:53:43;100125.47;;;22.18;77.73
32735;BME280;19112;51.076;3.706;2023-09-18T04:56:09;100166.72;;;22.42;77.86
32735;BME280;19112;51.076;3.706;2023-09-18T04:58:37;100166.91;;;22.36;77.72
32735;BME280;19112;51.076;3.706;2023-09-18T05:01:03;100121.25;;;22.08;77.42
32735;BME280;19112;51.076;3.706;2023-09-18T05:03:36;100195.97;;;22.49;77.88
32735;BME280;19112;51.076;3.706;2023-09-18T05:06:02;100218.25;;;22.50;78.05
32735;BME280;19112;51.076;3.706;2023-09-18T05:08:31;100099.75;;;21.77;77.98
32735;BME280;19112;51.076;3.706;2023-09-18T05:10:57;100118.41;;;21.80;78.11
32735;BME280;19112;51.076;3.706;2023-09-18T05:13:23;100140.44;;;21.89;77.95
32735;BME280;19112;51.076;3.706;2023-09-18T05:15:49;100137.16;;;21.77;78.28
32735;BME280;19112;51.076;3.706;2023-09-18T05:18:15;100034.34;;;21.18;78.13
32735;BME280;19112;51.076;3.706;2023-09-18T05:20:42;100097.03;;;21.42;78.51
32735;BME280;19112;51.076;3.706;2023-09-18T05:23:07;100158.75;;;21.69;78.85
32735;BME280;19112;51.076;3.706;2023-09-18T05:25:34;100061.09;;;21.17;78.24
32735;BME280;19112;51.076;3.706;2023-09-18T05:28:04;100111.53;;;21.29;78.62
32735;BME280;19112;51.076;3.706;2023-09-18T05:30:33;100065.81;;;21.06;78.84
32735;BME280;19112;51.076;3.706;2023-09-18T05:33:05;100131.91;;;21.36;79.07
32735;BME280;19112;51.076;3.706;2023-09-18T05:35:42;100150.50;;;21.39;79.29
32735;BME280;19112;51.076;3.706;2023-09-18T05:38:11;100134.78;;;21.24;79.05
32735;BME280;19112;51.076;3.706;2023-09-18T05:40:39;100157.81;;;21.31;79.24
32735;BME280;19112;51.076;3.706;2023-09-18T05:43:05;100226.38;;;21.71;79.37
32735;BME280;19112;51.076;3.706;2023-09-18T05:45:31;100079.56;;;20.86;79.05
32735;BME280;19112;51.076;3.706;2023-09-18T05:47:58;100133.31;;;21.11;79.41
32735;BME280;19112;51.076;3.706;2023-09-18T05:50:30;100046.25;;;20.63;79.27
32735;BME280;19112;51.076;3.706;2023-09-18T05:52:58;100072.75;;;20.71;79.23
32735;BME280;19112;51.076;3.706;2023-09-18T05:55:30;100171.19;;;21.28;79.17
32735;BME280;19112;51.076;3.706;2023-09-18T05:57:56;100150.13;;;21.14;79.24
32735;BME280;19112;51.076;3.706;2023-09-18T06:00:23;100165.03;;;21.26;79.35
32735;BME280;19112;51.076;3.706;2023-09-18T06:02:50;100116.69;;;20.97;79.19
32735;BME280;19112;51.076;3.706;2023-09-18T06:05:17;100188.84;;;21.37;79.32
32735;BME280;19112;51.076;3.706;2023-09-18T06:07:49;100145.75;;;21.12;79.57
32735;BME280;19112;51.076;3.706;2023-09-18T06:10:16;100093.19;;;20.74;79.42
32735;BME280;19112;51.076;3.706;2023-09-18T06:12:44;100147.75;;;21.01;79.77
32735;BME280;19112;51.076;3.706;2023-09-18T06:15:11;100180.28;;;21.19;79.90
32735;BME280;19112;51.076;3.706;2023-09-18T06:17:40;100127.56;;;20.89;79.89
32735;BME280;19112;51.076;3.706;2023-09-18T06:20:07;100094.31;;;20.62;79.79
32735;BME280;19112;51.076;3.706;2023-09-18T06:22:38;100112.78;;;20.73;79.68
32735;BME280;19112;51.076;3.706;2023-09-18T06:25:06;100141.78;;;20.89;79.54
32735;BME280;19112;51.076;3.706;2023-09-18T06:27:34;100159.31;;;21.01;79.64
32735;BME280;19112;51.076;3.706;2023-09-18T06:30:03;100192.75;;;21.21;79.63
32735;BME280;19112;51.076;3.706;2023-09-18T06:32:29;100092.44;;;20.67;79.50
32735;BME280;19112;51.076;3.706;2023-09-18T06:34:55;100235.91;;;21.42;79.45
32735;BME280;19112;51.076;3.706;2023-09-18T06:37:24;100192.22;;;21.02;79.60
32735;BME280;19112;51.076;3.706;2023-09-18T06:39:50;100142.78;;;20.82;79.47
32735;BME280;19112;51.076;3.706;2023-09-18T06:42:16;100194.72;;;21.11;79.74
32735;BME280;19112;51.076;3.706;2023-09-18T06:44:42;100212.09;;;21.32;79.27
32735;BME280;19112;51.076;3.706;2023-09-18T06:47:08;100148.88;;;20.90;79.33
32735;BME280;19112;51.076;3.706;2023-09-18T06:49:34;100198.03;;;21.22;78.94
32735;BME280;19112;51.076;3.706;2023-09-18T06:52:00;100204.44;;;21.13;79.20
32735;BME280;19112;51.076;3.706;2023-09-18T06:54:26;100221.97;;;21.25;79.07
32735;BME280;19112;51.076;3.706;2023-09-18T06:56:51;100213.03;;;21.28;79.12
32735;BME280;19112;51.076;3.706;2023-09-18T06:59:17;100246.59;;;21.42;79.13
32735;BME280;19112;51.076;3.706;2023-09-18T07:01:43;100221.22;;;21.20;79.17
32735;BME280;19112;51.076;3.706;2023-09-18T07:04:09;100173.56;;;21.00;78.91
32735;BME280;19112;51.076;3.706;2023-09-18T07:06:35;100235.06;;;21.40;78.58
32735;BME280;19112;51.076;3.706;2023-09-18T07:09:01;100261.53;;;21.53;78.67
32735;BME280;19112;51.076;3.706;2023-09-18T07:11:29;100282.53;;;21.69;78.38
32735;BME280;19112;51.076;3.706;2023-09-18T07:13:55;100231.09;;;21.60;77.98
32735;BME280;19112;51.076;3.706;2023-09-18T07:16:21;100289.72;;;22.06;77.62
32735;BME280;19112;51.076;3.706;2023-09-18T07:18:47;100238.19;;;22.00;76.75
32735;BME280;19112;51.076;3.706;2023-09-18T07:21:13;100221.69;;;22.19;76.13
32735;BME280;19112;51.076;3.706;2023-09-18T07:23:40;100163.56;;;21.90;75.40
32735;BME280;19112;51.076;3.706;2023-09-18T07:26:06;100256.44;;;22.57;75.21
32735;BME280;19112;51.076;3.706;2023-09-18T07:28:32;100206.75;;;22.46;74.89
32735;BME280;19112;51.076;3.706;2023-09-18T07:31:08;100200.34;;;22.54;74.00
32735;BME280;19112;51.076;3.706;2023-09-18T07:33:35;100283.41;;;23.17;73.23
32735;BME280;19112;51.076;3.706;2023-09-18T07:36:01;100246.97;;;23.12;72.82
32735;BME280;19112;51.076;3.706;2023-09-18T07:38:27;100215.25;;;22.96;72.05
32735;BME280;19112;51.076;3.706;2023-09-18T07:40:53;100186.00;;;22.89;71.85
32735;BME280;19112;51.076;3.706;2023-09-18T07:43:19;100202.38;;;23.09;71.26
32735;BME280;19112;51.076;3.706;2023-09-18T07:45:45;100280.38;;;23.61;70.92
32735;BME280;19112;51.076;3.706;2023-09-18T07:48:11;100234.53;;;23.40;70.55
32735;BME280;19112;51.076;3.706;2023-09-18T07:50:37;100191.75;;;23.06;70.29
32735;BME280;19112;51.076;3.706;2023-09-18T07:53:03;100175.47;;;23.14;70.08
32735;BME280;19112;51.076;3.706;2023-09-18T07:55:29;100253.50;;;23.64;69.58
32735;BME280;19112;51.076;3.706;2023-09-18T07:57:56;100255.66;;;23.81;69.33
32735;BME280;19112;51.076;3.706;2023-09-18T08:00:22;100260.88;;;23.85;68.50
32735;BME280;19112;51.076;3.706;2023-09-18T08:02:49;100195.19;;;23.72;68.15
32735;BME280;19112;51.076;3.706;2023-09-18T08:05:16;100276.84;;;23.90;67.77
32735;BME280;19112;51.076;3.706;2023-09-18T08:07:42;100297.47;;;23.86;67.59
32735;BME280;19112;51.076;3.706;2023-09-18T08:10:09;100211.59;;;23.30;67.78
32735;BME280;19112;51.076;3.706;2023-09-18T08:12:35;100220.13;;;23.44;67.36
32735;BME280;19112;51.076;3.706;2023-09-18T08:15:01;100243.06;;;23.53;67.60
32735;BME280;19112;51.076;3.706;2023-09-18T08:17:28;100215.03;;;23.35;67.86
32735;BME280;19112;51.076;3.706;2023-09-18T08:19:54;100232.78;;;23.39;67.59
32735;BME280;19112;51.076;3.706;2023-09-18T08:22:21;100281.97;;;23.68;67.53
32735;BME280;19112;51.076;3.706;2023-09-18T08:24:48;100238.06;;;23.41;67.61
32735;BME280;19112;51.076;3.706;2023-09-18T08:27:15;100251.16;;;23.51;67.56
32735;BME280;19112;51.076;3.706;2023-09-18T08:29:45;100151.28;;;22.86;67.08
32735;BME280;19112;51.076;3.706;2023-09-18T08:32:11;100328.78;;;23.86;67.12
32735;BME280;19112;51.076;3.706;2023-09-18T08:34:37;100311.31;;;23.72;67.31
32735;BME280;19112;51.076;3.706;2023-09-18T08:37:03;100247.19;;;23.35;67.12
32735;BME280;19112;51.076;3.706;2023-09-18T08:39:30;100292.03;;;23.58;67.28
32735;BME280;19112;51.076;3.706;2023-09-18T08:42:04;100256.13;;;23.34;67.37
32735;BME280;19112;51.076;3.706;2023-09-18T08:44:31;100280.44;;;23.28;67.86
32735;BME280;19112;51.076;3.706;2023-09-18T08:46:57;100281.44;;;23.24;68.52
32735;BME280;19112;51.076;3.706;2023-09-18T08:49:24;100287.66;;;23.24;68.78
32735;BME280;19112;51.076;3.706;2023-09-18T08:51:52;100314.66;;;23.49;68.53
32735;BME280;19112;51.076;3.706;2023-09-18T08:54:19;100277.56;;;23.34;68.13
32735;BME280;19112;51.076;3.706;2023-09-18T08:56:46;100249.97;;;23.31;68.27
32735;BME280;19112;51.076;3.706;2023-09-18T08:59:12;100217.72;;;23.04;68.05
32735;BME280;19112;51.076;3.706;2023-09-18T09:01:39;100277.53;;;23.36;68.28
32735;BME280;19112;51.076;3.706;2023-09-18T09:04:05;100285.94;;;23.53;67.71
32735;BME280;19112;51.076;3.706;2023-09-18T09:06:31;100289.22;;;23.64;67.09
32735;BME280;19112;51.076;3.706;2023-09-18T09:08:57;100303.03;;;23.80;66.38
32735;BME280;19112;51.076;3.706;2023-09-18T09:11:23;100277.75;;;23.89;65.80
32735;BME280;19112;51.076;3.706;2023-09-18T09:14:13;100289.91;;;24.28;65.21
32735;BME280;19112;51.076;3.706;2023-09-18T09:16:50;100334.47;;;24.62;64.40
32735;BME280;19112;51.076;3.706;2023-09-18T09:19:18;100320.06;;;24.65;64.29
32735;BME280;19112;51.076;3.706;2023-09-18T09:21:45;100265.84;;;24.53;63.75
32735;BME280;19112;51.076;3.706;2023-09-18T09:24:12;100278.34;;;24.81;62.60
32735;BME280;19112;51.076;3.706;2023-09-18T09:26:41;100328.84;;;25.23;62.05
32735;BME280;19112;51.076;3.706;2023-09-18T09:29:19;100299.94;;;25.03;61.83
32735;BME280;19112;51.076;3.706;2023-09-18T09:31:47;100253.94;;;24.62;61.33
32735;BME280;19112;51.076;3.706;2023-09-18T09:34:25;100283.25;;;24.68;62.04
32735;BME280;19112;51.076;3.706;2023-09-18T09:36:57;100321.63;;;24.72;62.25
32735;BME280;19112;51.076;3.706;2023-09-18T09:39:23;100364.97;;;24.88;62.00
32735;BME280;19112;51.076;3.706;2023-09-18T09:41:54;100286.72;;;24.45;61.95
32735;BME280;19112;51.076;3.706;2023-09-18T09:44:20;100292.91;;;24.47;62.32
32735;BME280;19112;51.076;3.706;2023-09-18T09:46:48;100287.03;;;24.35;62.51
32735;BME280;19112;51.076;3.706;2023-09-18T09:49:15;100288.22;;;24.26;62.83
32735;BME280;19112;51.076;3.706;2023-09-18T09:51:42;100080.66;;;22.91;63.05
32735;BME280;19112;51.076;3.706;2023-09-18T09:54:08;100244.78;;;23.85;63.14
32735;BME280;19112;51.076;3.706;2023-09-18T09:56:48;100160.41;;;23.70;62.96
32735;BME280;19112;51.076;3.706;2023-09-18T09:59:17;100352.69;;;25.05;62.47
32735;BME280;19112;51.076;3.706;2023-09-18T10:01:47;100255.84;;;24.59;61.96
32735;BME280;19112;51.076;3.706;2023-09-18T10:04:17;100298.94;;;25.07;61.59
32735;BME280;19112;51.076;3.706;2023-09-18T10:06:57;100299.34;;;25.21;60.70
32735;BME280;19112;51.076;3.706;2023-09-18T10:09:26;100334.28;;;25.70;60.23
32735;BME280;19112;51.076;3.706;2023-09-18T10:11:55;100337.13;;;25.90;59.62
32735;BME280;19112;51.076;3.706;2023-09-18T10:14:33;100275.78;;;25.76;58.30
32735;BME280;19112;51.076;3.706;2023-09-18T10:17:21;100237.19;;;25.54;58.48
32735;BME280;19112;51.076;3.706;2023-09-18T10:20:07;100345.75;;;26.45;58.25
32735;BME280;19112;51.076;3.706;2023-09-18T10:22:46;100279.22;;;26.03;57.63
32735;BME280;19112;51.076;3.706;2023-09-18T10:25:24;100251.53;;;25.78;57.10
32735;BME280;19112;51.076;3.706;2023-09-18T10:27:52;100317.91;;;26.23;56.79
32735;BME280;19112;51.076;3.706;2023-09-18T10:30:24;100275.56;;;26.04;57.11
32735;BME280;19112;51.076;3.706;2023-09-18T10:32:51;100331.22;;;26.49;56.63
32735;BME280;19112;51.076;3.706;2023-09-18T10:35:18;100322.47;;;26.44;56.50
32735;BME280;19112;51.076;3.706;2023-09-18T10:37:46;100259.56;;;26.01;56.10
32735;BME280;19112;51.076;3.706;2023-09-18T10:40:13;100281.03;;;26.03;56.47
32735;BME280;19112;51.076;3.706;2023-09-18T10:42:41;100272.53;;;26.13;56.38
32735;BME280;19112;51.076;3.706;2023-09-18T10:45:10;100297.31;;;26.22;56.54
32735;BME280;19112;51.076;3.706;2023-09-18T10:47:43;100223.66;;;25.80;56.47
32735;BME280;19112;51.076;3.706;2023-09-18T10:50:26;100272.84;;;26.06;56.97
32735;BME280;19112;51.076;3.706;2023-09-18T10:52:52;100283.72;;;26.25;56.51
32735;BME280;19112;51.076;3.706;2023-09-18T10:55:19;100280.59;;;26.35;56.59
32735;BME280;19112;51.076;3.706;2023-09-18T10:57:58;100329.78;;;26.62;56.73
32735;BME280;19112;51.076;3.706;2023-09-18T11:00:29;100341.19;;;26.69;56.88
32735;BME280;19112;51.076;3.706;2023-09-18T11:03:15;100329.41;;;26.72;56.43
32735;BME280;19112;51.076;3.706;2023-09-18T11:05:45;100333.34;;;26.63;56.65
32735;BME280;19112;51.076;3.706;2023-09-18T11:11:07;100240.81;;;26.22;55.99
32735;BME280;19112;51.076;3.706;2023-09-18T11:13:57;100237.69;;;26.32;56.03
32735;BME280;19112;51.076;3.706;2023-09-18T11:16:43;100240.94;;;26.19;55.76
32735;BME280;19112;51.076;3.706;2023-09-18T11:19:12;100233.47;;;26.03;55.60
32735;BME280;19112;51.076;3.706;2023-09-18T11:21:39;100233.78;;;25.96;55.58
32735;BME280;19112;51.076;3.706;2023-09-18T11:24:11;100318.81;;;26.45;55.33
32735;BME280;19112;51.076;3.706;2023-09-18T11:26:42;100273.84;;;26.47;55.52
32735;BME280;19112;51.076;3.706;2023-09-18T11:29:21;100261.97;;;26.53;55.03
32735;BME280;19112;51.076;3.706;2023-09-18T11:31:53;100219.97;;;26.27;54.62
32735;BME280;19112;51.076;3.706;2023-09-18T11:34:30;100232.38;;;26.53;53.69
32735;BME280;19112;51.076;3.706;2023-09-18T11:37:20;100232.22;;;26.56;53.18
32735;BME280;19112;51.076;3.706;2023-09-18T11:39:47;100273.19;;;26.64;53.33
32735;BME280;19112;51.076;3.706;2023-09-18T11:42:17;100210.00;;;26.29;52.83
32735;BME280;19112;51.076;3.706;2023-09-18T11:44:43;100206.69;;;26.22;53.38
32735;BME280;19112;51.076;3.706;2023-09-18T11:47:14;100156.75;;;25.93;53.10
32735;BME280;19112;51.076;3.706;2023-09-18T11:49:58;100215.22;;;26.11;52.92
32735;BME280;19112;51.076;3.706;2023-09-18T11:52:30;100283.38;;;26.56;53.29
32735;BME280;19112;51.076;3.706;2023-09-18T11:54:59;100268.53;;;26.46;52.87
32735;BME280;19112;51.076;3.706;2023-09-18T11:57:26;100200.13;;;25.85;52.89
32735;BME280;19112;51.076;3.706;2023-09-18T11:59:54;100139.28;;;25.59;52.53
32735;BME280;19112;51.076;3.706;2023-09-18T12:02:28;100227.53;;;25.95;52.90
32735;BME280;19112;51.076;3.706;2023-09-18T12:05:10;100234.75;;;25.95;53.42
32735;BME280;19112;51.076;3.706;2023-09-18T12:07:37;100178.28;;;25.48;54.23
32735;BME280;19112;51.076;3.706;2023-09-18T12:10:06;100174.56;;;25.52;53.55
32735;BME280;19112;51.076;3.706;2023-09-18T12:12:33;100146.53;;;25.36;53.74
32735;BME280;19112;51.076;3.706;2023-09-18T12:14:59;100156.19;;;25.63;54.22
32735;BME280;19112;51.076;3.706;2023-09-18T12:17:25;100139.22;;;25.61;53.91
32735;BME280;19112;51.076;3.706;2023-09-18T12:19:54;100218.88;;;26.31;53.70
32735;BME280;19112;51.076;3.706;2023-09-18T12:22:27;100209.38;;;26.44;53.15
32735;BME280;19112;51.076;3.706;2023-09-18T12:25:11;100238.84;;;26.69;52.42
32735;BME280;19112;51.076;3.706;2023-09-18T12:27:37;100110.50;;;25.85;51.96
32735;BME280;19112;51.076;3.706;2023-09-18T12:30:05;100231.84;;;26.65;51.99
32735;BME280;19112;51.076;3.706;2023-09-18T12:32:31;100118.41;;;26.10;50.65
32735;BME280;19112;51.076;3.706;2023-09-18T12:34:58;100123.94;;;26.27;50.19
32735;BME280;19112;51.076;3.706;2023-09-18T12:37:25;100216.66;;;26.83;50.61
32735;BME280;19112;51.076;3.706;2023-09-18T12:39:51;100203.59;;;27.14;51.20
32735;BME280;19112;51.076;3.706;2023-09-18T12:42:19;100133.53;;;26.94;48.60
32735;BME280;19112;51.076;3.706;2023-09-18T12:44:49;100197.09;;;27.58;48.29
32735;BME280;19112;51.076;3.706;2023-09-18T12:47:15;100196.38;;;27.54;48.26
32735;BME280;19112;51.076;3.706;2023-09-18T12:49:41;100139.34;;;27.43;47.93
32735;BME280;19112;51.076;3.706;2023-09-18T12:52:07;100086.53;;;27.39;47.68
32735;BME280;19112;51.076;3.706;2023-09-18T12:54:44;100124.91;;;27.63;47.33
32735;BME280;19112;51.076;3.706;2023-09-18T12:57:15;100140.44;;;27.58;47.19
32735;BME280;19112;51.076;3.706;2023-09-18T12:59:42;100113.34;;;27.42;46.82
32735;BME280;19112;51.076;3.706;2023-09-18T13:02:08;100112.03;;;27.51;46.45